createdAt,value
2023-03-31T00:01:15.373Z,99148.22
2023-03-31T00:03:45.171Z,99155.59
2023-03-31T00:06:19.268Z,99157.63
2023-03-31T00:08:52.784Z,99167.28
2023-03-31T00:11:22.846Z,99171.59
2023-03-31T00:13:51.780Z,99174.88
2023-03-31T00:16:20.726Z,99181.19
2023-03-31T00:18:51.683Z,99178.03
2023-03-31T00:21:26.055Z,99192.81
2023-03-31T00:24:02.635Z,99202.72
2023-03-31T00:26:31.694Z,99207.75
2023-03-31T00:29:01.356Z,99213.56
2023-03-31T00:31:30.281Z,99219.13
2023-03-31T00:33:59.081Z,99225.25
2023-03-31T00:36:30.748Z,99231.06
2023-03-31T00:39:10.302Z,99234.56
2023-03-31T00:41:40.066Z,99241.91
2023-03-31T00:44:15.604Z,99249.00
2023-03-31T00:46:53.897Z,99242.78
2023-03-31T00:49:25.752Z,99247.81
2023-03-31T00:51:58.481Z,99255.66
2023-03-31T00:54:28.617Z,99258.66
2023-03-31T00:56:59.463Z,99259.38
2023-03-31T00:59:32.544Z,99270.78
2023-03-31T01:02:03.749Z,99261.00
2023-03-31T01:04:45.516Z,99274.69
2023-03-31T01:07:20.576Z,99270.75
2023-03-31T01:09:49.948Z,99268.63
2023-03-31T01:12:20.185Z,99281.34
2023-03-31T01:14:51.880Z,99289.72
2023-03-31T01:17:23.318Z,99291.16
2023-03-31T01:20:13.217Z,99300.53
2023-03-31T01:23:18.073Z,99302.75
2023-03-31T01:26:21.807Z,99301.38
2023-03-31T01:29:09.632Z,99304.34
2023-03-31T01:32:13.111Z,99302.44
2023-03-31T01:34:59.492Z,99311.56
2023-03-31T01:38:06.397Z,99309.66
2023-03-31T01:40:44.380Z,99318.78
2023-03-31T01:43:27.840Z,99322.50
2023-03-31T01:46:12.643Z,99319.09
2023-03-31T01:48:56.157Z,99326.16
2023-03-31T01:51:41.636Z,99327.78
2023-03-31T01:54:23.886Z,99329.47
2023-03-31T01:57:14.889Z,99330.34
2023-03-31T02:00:14.747Z,99326.13
2023-03-31T02:02:52.548Z,99323.44
2023-03-31T02:05:26.834Z,99327.16
2023-03-31T02:08:31.275Z,99332.16
2023-03-31T02:11:01.442Z,99333.56
2023-03-31T02:13:31.859Z,99335.78
2023-03-31T02:16:04.253Z,99338.69
2023-03-31T02:18:39.151Z,99335.22
2023-03-31T02:21:12.109Z,99335.88
2023-03-31T02:23:40.956Z,99332.97
2023-03-31T02:26:20.871Z,99331.00
2023-03-31T02:28:49.622Z,99333.72
2023-03-31T02:31:49.048Z,99334.03
2023-03-31T02:34:17.754Z,99338.81
2023-03-31T02:36:47.108Z,99329.69
2023-03-31T02:39:21.110Z,99334.66
2023-03-31T02:41:49.573Z,99337.00
2023-03-31T02:44:19.090Z,99335.06
2023-03-31T02:46:48.524Z,99344.38
2023-03-31T02:49:19.257Z,99342.75
2023-03-31T02:52:04.294Z,99338.72
2023-03-31T02:55:00.430Z,99333.91
2023-03-31T02:57:50.974Z,99338.50
2023-03-31T03:00:43.953Z,99334.22
2023-03-31T03:03:21.031Z,99325.84
2023-03-31T03:06:18.066Z,99329.28
2023-03-31T03:09:09.882Z,99326.53
2023-03-31T03:11:56.364Z,99330.75
2023-03-31T03:15:02.436Z,99322.13
2023-03-31T03:17:42.379Z,99324.81
2023-03-31T03:20:12.235Z,99324.88
2023-03-31T03:22:41.703Z,99323.19
2023-03-31T03:25:14.219Z,99315.34
2023-03-31T03:27:42.686Z,99311.78
2023-03-31T03:30:14.865Z,99313.91
2023-03-31T03:32:43.913Z,99319.63
2023-03-31T03:35:12.619Z,99314.81
2023-03-31T03:37:41.189Z,99312.56
2023-03-31T03:40:10.513Z,99312.59
2023-03-31T03:42:39.542Z,99300.34
2023-03-31T03:45:08.986Z,99301.50
2023-03-31T03:47:37.523Z,99301.16
2023-03-31T03:50:06.426Z,99301.34
2023-03-31T03:52:34.896Z,99302.28
2023-03-31T03:55:03.313Z,99298.53
2023-03-31T03:57:31.865Z,99284.94
2023-03-31T04:00:00.320Z,99286.88
2023-03-31T04:02:29.644Z,99287.50
2023-03-31T04:04:58.168Z,99273.91
2023-03-31T04:07:26.618Z,99269.56
2023-03-31T04:09:55.064Z,99276.56
2023-03-31T04:12:23.463Z,99265.06
2023-03-31T04:14:51.905Z,99260.72
2023-03-31T04:17:20.491Z,99246.34
2023-03-31T04:19:51.775Z,99247.13
2023-03-31T04:22:21.572Z,99245.66
2023-03-31T04:24:53.672Z,99244.31
2023-03-31T04:27:24.029Z,99238.81
2023-03-31T04:29:55.810Z,99232.38
2023-03-31T04:32:25.078Z,99233.72
2023-03-31T04:35:03.573Z,99229.91
2023-03-31T04:37:35.601Z,99223.28
2023-03-31T04:40:10.850Z,99215.91
2023-03-31T04:42:41.249Z,99201.53
2023-03-31T04:45:10.460Z,99205.31
2023-03-31T04:47:39.148Z,99200.19
2023-03-31T04:50:10.381Z,99197.72
2023-03-31T04:52:41.766Z,99184.06
2023-03-31T04:55:10.773Z,99175.34
2023-03-31T04:57:39.258Z,99180.25
2023-03-31T05:00:08.925Z,99176.44
2023-03-31T05:02:37.550Z,99160.31
2023-03-31T05:05:06.998Z,99162.75
2023-03-31T05:07:35.521Z,99155.38
2023-03-31T05:10:04.194Z,99147.78
2023-03-31T05:12:37.009Z,99148.13
2023-03-31T05:15:08.048Z,99138.66
2023-03-31T05:17:37.864Z,99136.19
2023-03-31T05:20:08.776Z,99133.69
2023-03-31T05:22:43.365Z,99130.78
2023-03-31T05:25:19.552Z,99125.03
2023-03-31T05:27:49.642Z,99117.81
2023-03-31T05:30:19.327Z,99106.78
2023-03-31T05:32:47.849Z,99107.13
2023-03-31T05:35:16.325Z,99096.88
2023-03-31T05:37:45.009Z,99091.88
2023-03-31T05:40:13.977Z,99088.41
2023-03-31T05:42:42.889Z,99087.41
2023-03-31T05:45:11.565Z,99073.69
2023-03-31T05:47:40.123Z,99066.41
2023-03-31T05:50:10.891Z,99057.81
2023-03-31T05:52:40.479Z,99050.13
2023-03-31T05:55:09.554Z,99047.94
2023-03-31T05:57:38.022Z,99048.28
2023-03-31T06:00:07.596Z,99032.72
2023-03-31T06:02:36.199Z,99029.28
2023-03-31T06:05:04.919Z,99027.19
2023-03-31T06:07:33.464Z,99025.94
2023-03-31T06:10:01.941Z,99012.56
2023-03-31T06:12:30.452Z,99005.03
2023-03-31T06:14:59.028Z,99000.50
2023-03-31T06:17:27.524Z,98999.66
2023-03-31T06:19:56.823Z,98995.56
2023-03-31T06:22:25.357Z,98983.94
2023-03-31T06:24:53.820Z,98979.19
2023-03-31T06:27:22.479Z,98985.44
2023-03-31T06:29:51.351Z,98966.28
2023-03-31T06:32:19.770Z,98969.56
2023-03-31T06:34:48.352Z,98959.34
2023-03-31T06:37:16.807Z,98961.78
2023-03-31T06:39:45.768Z,98956.50
2023-03-31T06:42:14.232Z,98941.69
2023-03-31T06:44:42.855Z,98936.19
2023-03-31T06:47:11.494Z,98932.91
2023-03-31T06:49:39.888Z,98926.81
2023-03-31T06:52:08.383Z,98918.97
2023-03-31T06:54:36.905Z,98923.63
2023-03-31T06:57:05.333Z,98912.88
2023-03-31T06:59:33.759Z,98913.78
2023-03-31T07:02:03.110Z,98902.25
2023-03-31T07:04:31.654Z,98894.06
2023-03-31T07:07:00.768Z,98887.03
2023-03-31T07:09:29.200Z,98879.41
2023-03-31T07:11:57.572Z,98869.69
2023-03-31T07:14:26.076Z,98865.50
2023-03-31T07:16:54.559Z,98863.56
2023-03-31T07:19:23.917Z,98853.06
2023-03-31T07:21:52.444Z,98853.06
2023-03-31T07:24:21.346Z,98840.19
2023-03-31T07:26:50.024Z,98837.50
2023-03-31T07:29:18.459Z,98828.50
2023-03-31T07:31:49.230Z,98830.00
2023-03-31T07:34:17.730Z,98826.56
2023-03-31T07:36:46.188Z,98820.13
2023-03-31T07:39:14.762Z,98819.22
2023-03-31T07:41:44.254Z,98811.38
2023-03-31T07:44:12.698Z,98805.81
2023-03-31T07:46:41.743Z,98794.56
2023-03-31T07:49:11.414Z,98792.72
2023-03-31T07:51:39.826Z,98788.81
2023-03-31T07:54:08.285Z,98788.81
2023-03-31T07:56:36.701Z,98781.44
2023-03-31T07:59:05.164Z,98777.69
2023-03-31T08:01:33.857Z,98779.94
2023-03-31T08:04:03.123Z,98774.44
2023-03-31T08:06:31.727Z,98773.84
2023-03-31T08:09:00.639Z,98780.13
2023-03-31T08:11:29.355Z,98779.34
2023-03-31T08:13:57.776Z,98767.66
2023-03-31T08:16:28.094Z,98762.09
2023-03-31T08:18:56.546Z,98757.13
2023-03-31T08:21:24.960Z,98755.22
2023-03-31T08:23:56.227Z,98752.31
2023-03-31T08:26:26.461Z,98756.25
2023-03-31T08:28:55.046Z,98755.78
2023-03-31T08:31:27.141Z,98758.44
2023-03-31T08:33:56.381Z,98755.34
2023-03-31T08:36:24.745Z,98756.41
2023-03-31T08:38:53.176Z,98755.00
2023-03-31T08:41:47.898Z,98749.78
2023-03-31T08:44:39.915Z,98740.28
2023-03-31T08:47:17.189Z,98746.13
2023-03-31T08:50:13.408Z,98748.38
2023-03-31T08:52:50.646Z,98748.47
2023-03-31T08:55:29.231Z,98745.28
2023-03-31T08:58:07.538Z,98740.19
2023-03-31T09:00:52.965Z,98734.78
2023-03-31T09:03:45.868Z,98737.88
2023-03-31T09:06:23.822Z,98737.53
2023-03-31T09:08:58.436Z,98725.69
2023-03-31T09:11:41.843Z,98724.63
2023-03-31T09:14:32.597Z,98726.41
2023-03-31T09:17:22.922Z,98727.91
2023-03-31T09:20:23.372Z,98716.09
2023-03-31T09:23:04.555Z,98721.69
2023-03-31T09:25:37.384Z,98715.28
2023-03-31T09:28:15.696Z,98716.41
2023-03-31T09:30:44.890Z,98718.66
2023-03-31T09:33:20.180Z,98715.97
2023-03-31T09:35:50.001Z,98715.06
2023-03-31T09:38:20.526Z,98712.81
2023-03-31T09:40:49.928Z,98709.63
2023-03-31T09:43:27.090Z,98697.94
2023-03-31T09:48:32.402Z,98695.63
2023-03-31T09:51:04.592Z,98692.31
2023-03-31T09:53:48.390Z,98689.72
2023-03-31T09:56:34.741Z,98701.34
2023-03-31T09:59:04.887Z,98701.03
2023-03-31T10:01:34.144Z,98697.25
2023-03-31T10:04:06.531Z,98705.44
2023-03-31T10:06:41.777Z,98700.75
2023-03-31T10:09:12.889Z,98708.97
2023-03-31T10:11:52.539Z,98713.53
2023-03-31T10:14:28.279Z,98710.94
2023-03-31T10:16:58.569Z,98714.03
2023-03-31T10:19:34.169Z,98718.47
2023-03-31T10:22:07.443Z,98715.31
2023-03-31T10:24:41.893Z,98709.09
2023-03-31T10:27:24.035Z,98713.69
2023-03-31T10:30:00.888Z,98724.50
2023-03-31T10:32:35.126Z,98722.69
2023-03-31T10:35:37.052Z,98728.00
2023-03-31T10:38:12.104Z,98731.06
2023-03-31T10:40:51.113Z,98725.63
2023-03-31T10:43:28.405Z,98722.28
2023-03-31T10:45:59.353Z,98723.13
2023-03-31T10:48:39.661Z,98728.81
2023-03-31T10:51:23.149Z,98730.19
2023-03-31T10:53:53.653Z,98735.34
2023-03-31T10:56:51.386Z,98747.91
2023-03-31T10:59:30.678Z,98744.94
2023-03-31T11:02:23.408Z,98746.31
2023-03-31T11:05:23.387Z,98751.84
2023-03-31T11:08:06.796Z,98761.66
2023-03-31T11:11:13.411Z,98767.94
2023-03-31T11:14:17.115Z,98777.81
2023-03-31T11:16:54.700Z,98768.56
2023-03-31T11:19:49.152Z,98775.94
2023-03-31T11:22:42.243Z,98774.84
2023-03-31T11:25:15.178Z,98777.31
2023-03-31T11:28:21.973Z,98784.13
2023-03-31T11:31:13.471Z,98786.59
2023-03-31T11:34:00.153Z,98795.44
2023-03-31T11:36:37.839Z,98796.56
2023-03-31T11:39:16.397Z,98799.78
2023-03-31T11:41:56.967Z,98795.81
2023-03-31T11:44:40.005Z,98808.28
2023-03-31T11:47:16.476Z,98803.56
2023-03-31T11:49:55.770Z,98811.13
2023-03-31T11:52:30.281Z,98815.84
2023-03-31T11:55:08.907Z,98817.72
2023-03-31T11:58:03.660Z,98823.00
2023-03-31T12:00:37.708Z,98824.69
2023-03-31T12:03:18.918Z,98830.00
2023-03-31T12:05:55.032Z,98829.63
2023-03-31T12:08:32.485Z,98833.75
2023-03-31T12:11:12.276Z,98841.31
2023-03-31T12:14:03.637Z,98837.53
2023-03-31T12:17:15.635Z,98834.31
2023-03-31T12:19:49.595Z,98837.69
2023-03-31T12:22:30.524Z,98846.56
2023-03-31T12:24:59.538Z,98849.75
2023-03-31T12:27:39.309Z,98851.63
2023-03-31T12:30:17.748Z,98858.41
2023-03-31T12:32:52.742Z,98870.84
2023-03-31T12:35:36.089Z,98865.56
2023-03-31T12:38:27.134Z,98865.38
2023-03-31T12:41:08.542Z,98878.75
2023-03-31T12:43:57.089Z,98875.72
2023-03-31T12:46:37.332Z,98878.34
2023-03-31T12:49:15.329Z,98888.13
2023-03-31T12:52:01.977Z,98889.47
2023-03-31T12:55:00.956Z,98892.84
2023-03-31T12:57:29.595Z,98900.94
2023-03-31T13:00:18.141Z,98900.00
2023-03-31T13:02:46.794Z,98903.38
2023-03-31T13:05:39.819Z,98903.19
2023-03-31T13:08:11.754Z,98907.91
2023-03-31T13:10:59.973Z,98906.19
2023-03-31T13:13:28.689Z,98918.06
2023-03-31T13:16:00.828Z,98923.31
2023-03-31T13:18:33.923Z,98924.59
2023-03-31T13:21:05.844Z,98920.84
2023-03-31T13:23:38.662Z,98933.44
2023-03-31T13:26:07.955Z,98936.06
2023-03-31T13:28:44.892Z,98934.56
2023-03-31T13:31:15.856Z,98944.34
2023-03-31T13:33:48.930Z,98945.66
2023-03-31T13:36:26.116Z,98948.28
2023-03-31T13:39:48.089Z,98946.75
2023-03-31T13:42:51.935Z,98960.69
2023-03-31T13:45:53.394Z,98956.34
2023-03-31T13:48:45.465Z,98960.50
2023-03-31T13:51:24.849Z,98961.81
2023-03-31T13:54:21.592Z,98963.88
2023-03-31T13:57:28.033Z,98965.00
2023-03-31T14:00:15.267Z,98981.94
2023-03-31T14:03:20.747Z,98994.56
2023-03-31T14:06:06.558Z,98997.19
2023-03-31T14:08:46.745Z,98999.81
2023-03-31T14:11:32.636Z,99006.53
2023-03-31T14:14:05.129Z,99014.06
2023-03-31T14:16:41.128Z,99016.47
2023-03-31T14:19:28.346Z,99014.78
2023-03-31T14:22:08.162Z,99024.91
2023-03-31T14:24:57.598Z,99019.59
2023-03-31T14:27:48.236Z,99030.69
2023-03-31T14:30:39.560Z,99030.28
2023-03-31T14:33:38.124Z,99039.31
2023-03-31T14:36:39.150Z,99037.56
2023-03-31T14:39:12.118Z,99045.84
2023-03-31T14:41:41.076Z,99052.81
2023-03-31T14:44:15.804Z,99055.63
2023-03-31T14:46:44.287Z,99048.47
2023-03-31T14:49:38.003Z,99068.44
2023-03-31T14:52:21.353Z,99070.50
2023-03-31T14:54:49.830Z,99071.25
2023-03-31T14:57:27.435Z,99068.22
2023-03-31T14:59:56.811Z,99067.25
2023-03-31T15:02:34.416Z,99077.59
2023-03-31T15:05:12.186Z,99077.16
2023-03-31T15:07:42.875Z,99084.66
2023-03-31T15:10:21.634Z,99090.66
2023-03-31T15:12:52.758Z,99086.09
2023-03-31T15:15:22.325Z,99083.06
2023-03-31T15:17:50.907Z,99091.53
2023-03-31T15:20:31.902Z,99090.78
2023-03-31T15:23:19.507Z,99085.16
2023-03-31T15:25:48.421Z,99085.16
2023-03-31T15:28:19.457Z,99082.31
2023-03-31T15:30:59.715Z,99090.78
2023-03-31T15:33:42.322Z,99087.41
2023-03-31T15:36:13.893Z,99089.47
2023-03-31T15:38:42.976Z,99090.00
2023-03-31T15:41:17.853Z,99087.19
2023-03-31T15:43:47.604Z,99093.38
2023-03-31T15:46:48.003Z,99098.06
2023-03-31T15:49:25.432Z,99100.66
2023-03-31T15:52:01.549Z,99096.88
2023-03-31T15:54:42.467Z,99103.84
2023-03-31T15:57:15.952Z,99107.75
2023-03-31T15:59:56.348Z,99107.34
2023-03-31T16:02:28.844Z,99107.13
2023-03-31T16:05:00.190Z,99104.09
2023-03-31T16:07:33.846Z,99104.09
2023-03-31T16:10:16.478Z,99094.13
2023-03-31T16:13:02.252Z,99090.53
2023-03-31T16:15:43.349Z,99090.53
2023-03-31T16:18:18.821Z,99088.28
2023-03-31T16:20:57.234Z,99087.50
2023-03-31T16:23:32.455Z,99079.81
2023-03-31T16:26:02.687Z,99085.25
2023-03-31T16:28:35.026Z,99073.72
2023-03-31T16:31:04.523Z,99065.59
2023-03-31T16:33:53.605Z,99073.09
2023-03-31T16:36:22.034Z,99057.25
2023-03-31T16:38:54.818Z,99057.81
2023-03-31T16:41:28.024Z,99047.09
2023-03-31T16:43:56.891Z,99042.75
2023-03-31T16:46:26.198Z,99034.06
2023-03-31T16:48:55.279Z,99025.41
2023-03-31T16:51:24.205Z,99019.31
2023-03-31T16:53:52.709Z,99022.69
2023-03-31T16:56:22.020Z,99014.03
2023-03-31T16:58:50.953Z,99014.56
2023-03-31T17:01:19.374Z,99010.75
2023-03-31T17:03:49.494Z,99006.97
2023-03-31T17:06:18.118Z,99003.41
2023-03-31T17:08:46.713Z,98997.56
2023-03-31T17:11:15.980Z,99000.91
2023-03-31T17:13:45.644Z,98994.53
2023-03-31T17:16:21.929Z,98996.16
2023-03-31T17:18:55.843Z,99007.44
2023-03-31T17:21:24.731Z,99005.16
2023-03-31T17:23:53.255Z,99001.38
2023-03-31T17:26:22.987Z,98997.59
2023-03-31T17:28:51.526Z,98991.75
2023-03-31T17:31:22.446Z,98990.25
2023-03-31T17:33:50.981Z,98996.97
2023-03-31T17:36:19.495Z,98995.97
2023-03-31T17:38:48.043Z,98994.25
2023-03-31T17:41:18.625Z,98989.91
2023-03-31T17:43:48.421Z,98984.63
2023-03-31T17:46:18.928Z,98984.41
2023-03-31T17:48:47.508Z,98983.22
2023-03-31T17:51:18.746Z,98981.50
2023-03-31T17:53:48.868Z,98980.53
2023-03-31T17:56:20.583Z,98981.59
2023-03-31T17:58:48.982Z,98972.94
2023-03-31T18:01:17.486Z,98970.63
2023-03-31T18:03:47.221Z,98966.84
2023-03-31T18:06:16.686Z,98966.63
2023-03-31T18:08:45.450Z,98952.34
2023-03-31T18:11:14.397Z,98952.88
2023-03-31T18:13:42.982Z,98949.31
2023-03-31T18:16:14.187Z,98943.47
2023-03-31T18:18:43.360Z,98939.69
2023-03-31T18:21:14.646Z,98935.34
2023-03-31T18:23:43.615Z,98928.75
2023-03-31T18:26:15.118Z,98935.47
2023-03-31T18:28:43.515Z,98943.50
2023-03-31T18:31:13.347Z,98943.03
2023-03-31T18:33:42.898Z,98947.47
2023-03-31T18:36:20.741Z,98944.03
2023-03-31T18:38:51.052Z,98943.59
2023-03-31T18:41:20.209Z,98930.41
2023-03-31T18:43:55.069Z,98930.72
2023-03-31T18:46:23.676Z,98928.97
2023-03-31T18:48:52.328Z,98923.66
2023-03-31T18:51:21.070Z,98929.06
2023-03-31T18:53:49.536Z,98921.16
2023-03-31T18:56:17.997Z,98924.50
2023-03-31T18:58:46.456Z,98926.56
2023-03-31T19:01:14.941Z,98917.38
2023-03-31T19:03:45.369Z,98923.00
2023-03-31T19:06:14.304Z,98913.25
2023-03-31T19:08:42.770Z,98915.84
2023-03-31T19:11:13.880Z,98920.50
2023-03-31T19:13:43.841Z,98918.22
2023-03-31T19:16:14.576Z,98910.88
2023-03-31T19:18:44.582Z,98920.63
2023-03-31T19:21:13.385Z,98925.47
2023-03-31T19:23:41.893Z,98915.53
2023-03-31T19:26:15.267Z,98927.53
2023-03-31T19:28:44.175Z,98927.75
2023-03-31T19:31:13.180Z,98922.66
2023-03-31T19:33:42.287Z,98917.25
2023-03-31T19:36:11.506Z,98924.41
2023-03-31T19:38:40.151Z,98920.81
2023-03-31T19:41:08.823Z,98922.34
2023-03-31T19:43:37.221Z,98926.69
2023-03-31T19:46:05.695Z,98926.13
2023-03-31T19:48:34.705Z,98931.00
2023-03-31T19:51:07.085Z,98933.81
2023-03-31T19:53:37.819Z,98937.94
2023-03-31T19:56:09.964Z,98930.25
2023-03-31T19:58:38.822Z,98931.00
2023-03-31T20:01:19.064Z,98924.63
2023-03-31T20:03:47.887Z,98925.16
2023-03-31T20:06:16.597Z,98923.09
2023-03-31T20:08:45.265Z,98920.28
2023-03-31T20:11:15.732Z,98914.66
2023-03-31T20:13:45.267Z,98922.34
2023-03-31T20:16:17.604Z,98922.34
2023-03-31T20:18:50.283Z,98932.31
2023-03-31T20:21:21.391Z,98935.13
2023-03-31T20:23:50.340Z,98928.72
2023-03-31T20:26:21.743Z,98934.34
2023-03-31T20:28:50.271Z,98939.22
2023-03-31T20:31:22.025Z,98935.66
2023-03-31T20:33:52.280Z,98947.66
2023-03-31T20:36:23.295Z,98940.00
2023-03-31T20:38:54.137Z,98960.44
2023-03-31T20:41:25.380Z,98954.81
2023-03-31T20:43:55.759Z,98958.94
2023-03-31T20:46:24.651Z,98948.97
2023-03-31T20:48:56.836Z,98963.03
2023-03-31T20:51:30.914Z,98963.78
2023-03-31T20:54:01.271Z,98965.09
2023-03-31T20:56:37.937Z,98966.41
2023-03-31T20:59:08.391Z,98967.16
2023-03-31T21:01:38.269Z,98979.72
2023-03-31T21:04:08.762Z,98967.69
2023-03-31T21:06:42.896Z,98980.25
2023-03-31T21:09:13.221Z,98973.84
2023-03-31T21:11:42.509Z,98982.84
2023-03-31T21:14:19.574Z,98976.47
2023-03-31T21:16:48.015Z,98985.44
2023-03-31T21:19:16.458Z,98977.75
2023-03-31T21:21:44.858Z,98978.81
2023-03-31T21:24:14.310Z,98992.13
2023-03-31T21:26:43.082Z,98987.03
2023-03-31T21:29:11.727Z,98984.75
2023-03-31T21:31:40.294Z,98994.50
2023-03-31T21:34:09.045Z,98991.47
2023-03-31T21:36:37.567Z,99005.53
2023-03-31T21:39:06.515Z,99004.00
2023-03-31T21:41:35.106Z,99008.13
2023-03-31T21:44:04.166Z,99007.13
2023-03-31T21:46:34.588Z,99008.44
2023-03-31T21:49:05.449Z,99013.84
2023-03-31T21:51:33.883Z,99007.22
2023-03-31T21:54:02.391Z,99017.72
2023-03-31T21:56:32.352Z,99022.16
2023-03-31T21:59:02.107Z,99027.56
2023-03-31T22:01:30.934Z,99030.91
2023-03-31T22:04:00.597Z,99034.25
2023-03-31T22:06:29.736Z,99038.13
2023-03-31T22:08:58.226Z,99034.31
2023-03-31T22:11:27.680Z,99038.41
2023-03-31T22:13:56.294Z,99036.69
2023-03-31T22:16:25.217Z,99030.84
2023-03-31T22:18:55.253Z,99038.50
2023-03-31T22:21:26.457Z,99037.50
2023-03-31T22:24:00.772Z,99044.41
2023-03-31T22:26:31.040Z,99053.91
2023-03-31T22:28:59.849Z,99053.69
2023-03-31T22:31:29.149Z,99057.03
2023-03-31T22:33:57.671Z,99058.88
2023-03-31T22:36:26.120Z,99066.53
2023-03-31T22:38:54.576Z,99072.69
2023-03-31T22:41:23.372Z,99076.00
2023-03-31T22:43:52.471Z,99066.06
2023-03-31T22:46:20.966Z,99072.22
2023-03-31T22:48:52.389Z,99077.63
2023-03-31T22:51:20.812Z,99081.72
2023-03-31T22:53:53.622Z,99087.88
2023-03-31T22:56:23.979Z,99091.75
2023-03-31T22:58:53.270Z,99095.09
2023-03-31T23:01:22.830Z,99094.09
2023-03-31T23:03:51.722Z,99101.56
2023-03-31T23:06:20.460Z,99104.13
2023-03-31T23:08:53.517Z,99102.38
2023-03-31T23:11:22.103Z,99107.25
2023-03-31T23:13:50.497Z,99112.63
2023-03-31T23:16:22.248Z,99113.63
2023-03-31T23:18:53.525Z,99113.41
2023-03-31T23:21:28.406Z,99114.91
2023-03-31T23:23:59.597Z,99120.53
2023-03-31T23:26:29.394Z,99124.09
2023-03-31T23:28:58.589Z,99123.56
2023-03-31T23:31:33.659Z,99125.09
2023-03-31T23:34:02.660Z,99123.81
2023-03-31T23:36:31.994Z,99122.50
2023-03-31T23:39:00.400Z,99138.09
2023-03-31T23:41:28.962Z,99144.69
2023-03-31T23:43:58.584Z,99146.97
2023-03-31T23:46:27.540Z,99143.63
2023-03-31T23:48:56.705Z,99150.78
2023-03-31T23:51:25.739Z,99165.81
2023-03-31T23:53:54.343Z,99160.97
2023-03-31T23:56:23.267Z,99165.53
2023-03-31T23:58:51.905Z,99167.81
